sensor_id;sensor_type;location;lat;lon;timestamp;P1;durP1;ratioP1;P2;durP2;ratioP2
61960;SDS011;47923;42.506;24.192;2022-12-18T00:01:24;70.85;;;49.15;;
61960;SDS011;47923;42.506;24.192;2022-12-18T00:03:52;55.65;;;33.85;;
61960;SDS011;47923;42.506;24.192;2022-12-18T00:06:20;49.05;;;32.63;;
61960;SDS011;47923;42.506;24.192;2022-12-18T00:08:47;46.53;;;29.92;;
61960;SDS011;47923;42.506;24.192;2022-12-18T00:11:17;41.08;;;27.45;;
61960;SDS011;47923;42.506;24.192;2022-12-18T00:13:44;38.35;;;26.38;;
61960;SDS011;47923;42.506;24.192;2022-12-18T00:16:11;34.10;;;24.38;;
61960;SDS011;47923;42.506;24.192;2022-12-18T00:18:41;33.67;;;23.25;;
61960;SDS011;47923;42.506;24.192;2022-12-18T00:21:08;29.77;;;20.42;;
61960;SDS011;47923;42.506;24.192;2022-12-18T00:23:35;41.03;;;27.45;;
61960;SDS011;47923;42.506;24.192;2022-12-18T00:26:03;40.42;;;27.60;;
61960;SDS011;47923;42.506;24.192;2022-12-18T00:28:33;49.60;;;32.55;;
61960;SDS011;47923;42.506;24.192;2022-12-18T00:31:09;40.97;;;27.77;;
61960;SDS011;47923;42.506;24.192;2022-12-18T00:33:36;58.15;;;36.83;;
61960;SDS011;47923;42.506;24.192;2022-12-18T00:36:22;50.88;;;31.48;;
61960;SDS011;47923;42.506;24.192;2022-12-18T00:38:52;42.05;;;27.27;;
61960;SDS011;47923;42.506;24.192;2022-12-18T00:41:19;47.15;;;29.90;;
61960;SDS011;47923;42.506;24.192;2022-12-18T00:44:04;40.53;;;26.90;;
61960;SDS011;47923;42.506;24.192;2022-12-18T00:46:31;48.75;;;31.08;;
61960;SDS011;47923;42.506;24.192;2022-12-18T00:48:57;34.97;;;22.65;;
61960;SDS011;47923;42.506;24.192;2022-12-18T00:51:23;37.90;;;22.52;;
61960;SDS011;47923;42.506;24.192;2022-12-18T00:53:49;39.60;;;25.88;;
61960;SDS011;47923;42.506;24.192;2022-12-18T00:56:14;38.10;;;24.40;;
61960;SDS011;47923;42.506;24.192;2022-12-18T00:58:40;45.22;;;28.65;;
61960;SDS011;47923;42.506;24.192;2022-12-18T01:01:05;46.13;;;28.98;;
61960;SDS011;47923;42.506;24.192;2022-12-18T01:03:32;43.55;;;25.65;;
61960;SDS011;47923;42.506;24.192;2022-12-18T01:05:58;38.97;;;24.60;;
61960;SDS011;47923;42.506;24.192;2022-12-18T01:08:23;39.17;;;26.13;;
61960;SDS011;47923;42.506;24.192;2022-12-18T01:10:49;37.38;;;22.10;;
61960;SDS011;47923;42.506;24.192;2022-12-18T01:13:14;32.15;;;19.40;;
61960;SDS011;47923;42.506;24.192;2022-12-18T01:15:40;28.35;;;18.27;;
61960;SDS011;47923;42.506;24.192;2022-12-18T01:18:05;24.95;;;16.50;;
61960;SDS011;47923;42.506;24.192;2022-12-18T01:20:31;28.35;;;16.60;;
61960;SDS011;47923;42.506;24.192;2022-12-18T01:22:57;23.27;;;13.93;;
61960;SDS011;47923;42.506;24.192;2022-12-18T01:25:22;23.52;;;14.88;;
61960;SDS011;47923;42.506;24.192;2022-12-18T01:27:48;23.30;;;14.50;;
61960;SDS011;47923;42.506;24.192;2022-12-18T01:30:13;25.02;;;15.48;;
61960;SDS011;47923;42.506;24.192;2022-12-18T01:32:39;31.00;;;19.08;;
61960;SDS011;47923;42.506;24.192;2022-12-18T01:35:04;60.55;;;39.55;;
61960;SDS011;47923;42.506;24.192;2022-12-18T01:37:30;72.70;;;46.28;;
61960;SDS011;47923;42.506;24.192;2022-12-18T01:39:56;66.82;;;43.60;;
61960;SDS011;47923;42.506;24.192;2022-12-18T01:42:21;49.15;;;31.48;;
61960;SDS011;47923;42.506;24.192;2022-12-18T01:50:28;36.13;;;22.70;;
61960;SDS011;47923;42.506;24.192;2022-12-18T01:52:51;31.42;;;22.50;;
61960;SDS011;47923;42.506;24.192;2022-12-18T01:55:20;29.02;;;18.17;;
61960;SDS011;47923;42.506;24.192;2022-12-18T01:57:49;25.75;;;17.52;;
61960;SDS011;47923;42.506;24.192;2022-12-18T02:00:18;29.67;;;17.42;;
61960;SDS011;47923;42.506;24.192;2022-12-18T02:02:45;27.02;;;17.65;;
61960;SDS011;47923;42.506;24.192;2022-12-18T02:05:12;29.60;;;17.75;;
61960;SDS011;47923;42.506;24.192;2022-12-18T02:16:00;49.70;;;31.23;;
61960;SDS011;47923;42.506;24.192;2022-12-18T02:18:34;48.05;;;28.45;;
61960;SDS011;47923;42.506;24.192;2022-12-18T02:21:17;36.72;;;24.30;;
61960;SDS011;47923;42.506;24.192;2022-12-18T02:26:36;16.85;;;10.82;;
61960;SDS011;47923;42.506;24.192;2022-12-18T02:29:08;16.70;;;9.10;;
61960;SDS011;47923;42.506;24.192;2022-12-18T02:31:41;16.30;;;9.55;;
61960;SDS011;47923;42.506;24.192;2022-12-18T02:34:12;15.00;;;7.97;;
61960;SDS011;47923;42.506;24.192;2022-12-18T02:36:39;13.65;;;7.60;;
61960;SDS011;47923;42.506;24.192;2022-12-18T02:39:07;16.58;;;8.45;;
61960;SDS011;47923;42.506;24.192;2022-12-18T02:41:35;14.38;;;8.57;;
61960;SDS011;47923;42.506;24.192;2022-12-18T02:44:06;14.57;;;7.68;;
61960;SDS011;47923;42.506;24.192;2022-12-18T02:46:38;14.40;;;8.50;;
61960;SDS011;47923;42.506;24.192;2022-12-18T02:49:25;16.98;;;9.70;;
61960;SDS011;47923;42.506;24.192;2022-12-18T02:52:10;32.30;;;19.00;;
61960;SDS011;47923;42.506;24.192;2022-12-18T02:57:41;32.38;;;21.40;;
61960;SDS011;47923;42.506;24.192;2022-12-18T03:00:16;33.60;;;20.38;;
61960;SDS011;47923;42.506;24.192;2022-12-18T03:10:49;23.50;;;15.80;;
61960;SDS011;47923;42.506;24.192;2022-12-18T03:15:51;18.55;;;10.45;;
61960;SDS011;47923;42.506;24.192;2022-12-18T03:18:22;22.77;;;12.73;;
61960;SDS011;47923;42.506;24.192;2022-12-18T03:20:51;18.63;;;10.88;;
61960;SDS011;47923;42.506;24.192;2022-12-18T03:23:21;17.73;;;11.07;;
61960;SDS011;47923;42.506;24.192;2022-12-18T03:25:51;17.60;;;9.88;;
61960;SDS011;47923;42.506;24.192;2022-12-18T03:28:20;15.20;;;10.18;;
61960;SDS011;47923;42.506;24.192;2022-12-18T03:30:47;17.10;;;11.00;;
61960;SDS011;47923;42.506;24.192;2022-12-18T03:33:24;17.48;;;9.50;;
61960;SDS011;47923;42.506;24.192;2022-12-18T03:35:54;17.35;;;9.95;;
61960;SDS011;47923;42.506;24.192;2022-12-18T03:38:20;18.33;;;9.57;;
61960;SDS011;47923;42.506;24.192;2022-12-18T03:43:26;17.25;;;8.68;;
61960;SDS011;47923;42.506;24.192;2022-12-18T03:46:27;15.18;;;8.40;;
61960;SDS011;47923;42.506;24.192;2022-12-18T03:49:11;15.85;;;9.15;;
61960;SDS011;47923;42.506;24.192;2022-12-18T03:51:52;16.00;;;10.63;;
61960;SDS011;47923;42.506;24.192;2022-12-18T03:54:26;31.98;;;21.00;;
61960;SDS011;47923;42.506;24.192;2022-12-18T03:56:55;42.50;;;26.52;;
61960;SDS011;47923;42.506;24.192;2022-12-18T03:59:26;46.35;;;28.60;;
61960;SDS011;47923;42.506;24.192;2022-12-18T04:01:54;43.00;;;25.48;;
61960;SDS011;47923;42.506;24.192;2022-12-18T04:04:23;39.60;;;25.88;;
61960;SDS011;47923;42.506;24.192;2022-12-18T04:06:52;33.13;;;21.20;;
61960;SDS011;47923;42.506;24.192;2022-12-18T04:09:19;25.08;;;15.60;;
61960;SDS011;47923;42.506;24.192;2022-12-18T04:11:45;28.23;;;17.65;;
61960;SDS011;47923;42.506;24.192;2022-12-18T04:14:12;31.05;;;19.02;;
61960;SDS011;47923;42.506;24.192;2022-12-18T04:16:38;41.10;;;27.15;;
61960;SDS011;47923;42.506;24.192;2022-12-18T04:19:03;34.63;;;19.45;;
61960;SDS011;47923;42.506;24.192;2022-12-18T04:21:29;28.25;;;18.08;;
61960;SDS011;47923;42.506;24.192;2022-12-18T04:23:55;30.08;;;17.90;;
61960;SDS011;47923;42.506;24.192;2022-12-18T04:26:20;38.95;;;23.13;;
61960;SDS011;47923;42.506;24.192;2022-12-18T04:28:46;34.65;;;20.80;;
61960;SDS011;47923;42.506;24.192;2022-12-18T04:31:11;33.42;;;19.38;;
61960;SDS011;47923;42.506;24.192;2022-12-18T04:33:37;28.45;;;19.63;;
61960;SDS011;47923;42.506;24.192;2022-12-18T04:36:02;25.63;;;18.50;;
61960;SDS011;47923;42.506;24.192;2022-12-18T04:38:28;27.45;;;16.50;;
61960;SDS011;47923;42.506;24.192;2022-12-18T04:40:53;25.50;;;17.05;;
61960;SDS011;47923;42.506;24.192;2022-12-18T04:43:18;31.13;;;21.13;;
61960;SDS011;47923;42.506;24.192;2022-12-18T04:45:44;30.98;;;19.70;;
61960;SDS011;47923;42.506;24.192;2022-12-18T04:48:09;38.65;;;25.85;;
61960;SDS011;47923;42.506;24.192;2022-12-18T04:50:35;40.75;;;26.25;;
61960;SDS011;47923;42.506;24.192;2022-12-18T04:53:00;35.25;;;21.20;;
61960;SDS011;47923;42.506;24.192;2022-12-18T04:55:26;34.55;;;20.80;;
61960;SDS011;47923;42.506;24.192;2022-12-18T04:57:52;30.27;;;19.90;;
61960;SDS011;47923;42.506;24.192;2022-12-18T05:00:17;32.08;;;20.42;;
61960;SDS011;47923;42.506;24.192;2022-12-18T05:02:43;31.40;;;20.15;;
61960;SDS011;47923;42.506;24.192;2022-12-18T05:05:08;32.15;;;19.33;;
61960;SDS011;47923;42.506;24.192;2022-12-18T05:07:34;25.40;;;17.02;;
61960;SDS011;47923;42.506;24.192;2022-12-18T05:09:59;20.83;;;12.40;;
61960;SDS011;47923;42.506;24.192;2022-12-18T05:12:25;19.33;;;12.00;;
61960;SDS011;47923;42.506;24.192;2022-12-18T05:14:51;21.45;;;12.32;;
61960;SDS011;47923;42.506;24.192;2022-12-18T05:17:16;19.42;;;12.65;;
61960;SDS011;47923;42.506;24.192;2022-12-18T05:19:42;35.38;;;23.35;;
61960;SDS011;47923;42.506;24.192;2022-12-18T05:22:07;35.17;;;22.75;;
61960;SDS011;47923;42.506;24.192;2022-12-18T05:24:33;31.13;;;19.08;;
61960;SDS011;47923;42.506;24.192;2022-12-18T05:26:59;31.58;;;21.02;;
61960;SDS011;47923;42.506;24.192;2022-12-18T05:29:24;31.33;;;19.88;;
61960;SDS011;47923;42.506;24.192;2022-12-18T05:31:50;36.45;;;21.58;;
61960;SDS011;47923;42.506;24.192;2022-12-18T05:34:15;32.28;;;20.45;;
61960;SDS011;47923;42.506;24.192;2022-12-18T05:36:41;40.30;;;26.58;;
61960;SDS011;47923;42.506;24.192;2022-12-18T05:39:07;53.42;;;40.38;;
61960;SDS011;47923;42.506;24.192;2022-12-18T05:41:32;56.70;;;44.40;;
61960;SDS011;47923;42.506;24.192;2022-12-18T05:43:58;50.10;;;36.90;;
61960;SDS011;47923;42.506;24.192;2022-12-18T05:46:24;46.17;;;31.30;;
61960;SDS011;47923;42.506;24.192;2022-12-18T05:48:49;51.25;;;33.78;;
61960;SDS011;47923;42.506;24.192;2022-12-18T05:51:16;45.83;;;32.60;;
61960;SDS011;47923;42.506;24.192;2022-12-18T05:53:43;50.70;;;32.55;;
61960;SDS011;47923;42.506;24.192;2022-12-18T05:56:16;46.72;;;28.20;;
61960;SDS011;47923;42.506;24.192;2022-12-18T05:58:43;138.32;;;81.57;;
61960;SDS011;47923;42.506;24.192;2022-12-18T06:01:27;167.60;;;103.55;;
61960;SDS011;47923;42.506;24.192;2022-12-18T06:03:52;58.03;;;41.17;;
61960;SDS011;47923;42.506;24.192;2022-12-18T06:06:22;51.05;;;36.13;;
61960;SDS011;47923;42.506;24.192;2022-12-18T06:08:49;44.85;;;31.92;;
61960;SDS011;47923;42.506;24.192;2022-12-18T06:11:16;49.45;;;31.90;;
61960;SDS011;47923;42.506;24.192;2022-12-18T06:13:44;57.75;;;37.85;;
61960;SDS011;47923;42.506;24.192;2022-12-18T06:16:10;47.95;;;32.45;;
61960;SDS011;47923;42.506;24.192;2022-12-18T06:18:35;51.67;;;33.80;;
61960;SDS011;47923;42.506;24.192;2022-12-18T06:21:01;59.35;;;38.60;;
61960;SDS011;47923;42.506;24.192;2022-12-18T06:23:27;75.72;;;49.58;;
61960;SDS011;47923;42.506;24.192;2022-12-18T06:25:53;68.53;;;45.00;;
61960;SDS011;47923;42.506;24.192;2022-12-18T06:28:18;56.45;;;38.42;;
61960;SDS011;47923;42.506;24.192;2022-12-18T06:30:47;60.17;;;42.35;;
61960;SDS011;47923;42.506;24.192;2022-12-18T06:33:13;54.50;;;38.60;;
61960;SDS011;47923;42.506;24.192;2022-12-18T06:35:39;61.55;;;43.38;;
61960;SDS011;47923;42.506;24.192;2022-12-18T06:38:05;64.95;;;41.30;;
61960;SDS011;47923;42.506;24.192;2022-12-18T06:40:31;85.88;;;52.83;;
61960;SDS011;47923;42.506;24.192;2022-12-18T06:42:57;67.82;;;45.08;;
61960;SDS011;47923;42.506;24.192;2022-12-18T06:45:22;53.47;;;38.13;;
61960;SDS011;47923;42.506;24.192;2022-12-18T06:47:48;41.58;;;28.65;;
61960;SDS011;47923;42.506;24.192;2022-12-18T06:50:13;31.35;;;21.95;;
61960;SDS011;47923;42.506;24.192;2022-12-18T06:52:39;30.98;;;20.60;;
61960;SDS011;47923;42.506;24.192;2022-12-18T06:55:09;37.10;;;23.27;;
61960;SDS011;47923;42.506;24.192;2022-12-18T06:57:35;49.65;;;31.85;;
61960;SDS011;47923;42.506;24.192;2022-12-18T07:00:02;47.25;;;32.30;;
61960;SDS011;47923;42.506;24.192;2022-12-18T07:02:29;45.22;;;29.23;;
61960;SDS011;47923;42.506;24.192;2022-12-18T07:04:54;64.43;;;41.72;;
61960;SDS011;47923;42.506;24.192;2022-12-18T07:07:20;75.30;;;51.08;;
61960;SDS011;47923;42.506;24.192;2022-12-18T07:09:45;66.00;;;43.55;;
61960;SDS011;47923;42.506;24.192;2022-12-18T07:12:11;70.45;;;47.67;;
61960;SDS011;47923;42.506;24.192;2022-12-18T07:14:36;55.47;;;40.20;;
61960;SDS011;47923;42.506;24.192;2022-12-18T07:17:02;47.40;;;33.83;;
61960;SDS011;47923;42.506;24.192;2022-12-18T07:19:27;42.25;;;30.75;;
61960;SDS011;47923;42.506;24.192;2022-12-18T07:21:52;37.47;;;23.17;;
61960;SDS011;47923;42.506;24.192;2022-12-18T07:24:18;20.05;;;14.30;;
61960;SDS011;47923;42.506;24.192;2022-12-18T07:26:45;22.55;;;14.85;;
61960;SDS011;47923;42.506;24.192;2022-12-18T07:29:11;17.63;;;11.50;;
61960;SDS011;47923;42.506;24.192;2022-12-18T07:31:36;17.63;;;11.00;;
61960;SDS011;47923;42.506;24.192;2022-12-18T07:34:02;16.25;;;10.70;;
61960;SDS011;47923;42.506;24.192;2022-12-18T07:36:27;14.02;;;9.27;;
61960;SDS011;47923;42.506;24.192;2022-12-18T07:38:53;16.75;;;11.02;;
61960;SDS011;47923;42.506;24.192;2022-12-18T07:41:18;15.40;;;10.07;;
61960;SDS011;47923;42.506;24.192;2022-12-18T07:43:44;15.40;;;10.70;;
61960;SDS011;47923;42.506;24.192;2022-12-18T07:46:10;19.40;;;11.55;;
61960;SDS011;47923;42.506;24.192;2022-12-18T07:48:38;19.98;;;12.27;;
61960;SDS011;47923;42.506;24.192;2022-12-18T07:51:05;16.60;;;10.95;;
61960;SDS011;47923;42.506;24.192;2022-12-18T07:53:32;20.45;;;13.13;;
61960;SDS011;47923;42.506;24.192;2022-12-18T07:55:59;21.05;;;13.73;;
61960;SDS011;47923;42.506;24.192;2022-12-18T07:58:27;19.50;;;13.15;;
61960;SDS011;47923;42.506;24.192;2022-12-18T08:00:53;19.77;;;12.95;;
61960;SDS011;47923;42.506;24.192;2022-12-18T08:03:18;22.02;;;14.27;;
61960;SDS011;47923;42.506;24.192;2022-12-18T08:05:44;17.80;;;12.75;;
61960;SDS011;47923;42.506;24.192;2022-12-18T08:08:10;19.48;;;14.07;;
61960;SDS011;47923;42.506;24.192;2022-12-18T08:10:36;20.13;;;15.30;;
61960;SDS011;47923;42.506;24.192;2022-12-18T08:13:02;23.70;;;17.70;;
61960;SDS011;47923;42.506;24.192;2022-12-18T08:15:28;29.05;;;18.55;;
61960;SDS011;47923;42.506;24.192;2022-12-18T08:17:56;22.50;;;14.43;;
61960;SDS011;47923;42.506;24.192;2022-12-18T08:20:22;19.17;;;13.98;;
61960;SDS011;47923;42.506;24.192;2022-12-18T08:22:47;16.65;;;11.68;;
61960;SDS011;47923;42.506;24.192;2022-12-18T08:25:12;17.90;;;12.90;;
61960;SDS011;47923;42.506;24.192;2022-12-18T08:27:38;18.33;;;13.00;;
61960;SDS011;47923;42.506;24.192;2022-12-18T08:30:03;22.65;;;13.55;;
61960;SDS011;47923;42.506;24.192;2022-12-18T08:32:29;22.48;;;14.80;;
61960;SDS011;47923;42.506;24.192;2022-12-18T08:34:55;19.48;;;13.65;;
61960;SDS011;47923;42.506;24.192;2022-12-18T08:37:20;22.05;;;14.07;;
61960;SDS011;47923;42.506;24.192;2022-12-18T08:39:46;22.63;;;15.27;;
61960;SDS011;47923;42.506;24.192;2022-12-18T08:42:11;19.58;;;12.35;;
61960;SDS011;47923;42.506;24.192;2022-12-18T08:44:55;23.00;;;15.02;;
61960;SDS011;47923;42.506;24.192;2022-12-18T08:47:21;20.02;;;13.77;;
61960;SDS011;47923;42.506;24.192;2022-12-18T08:49:46;26.33;;;15.48;;
61960;SDS011;47923;42.506;24.192;2022-12-18T08:52:11;25.08;;;16.02;;
61960;SDS011;47923;42.506;24.192;2022-12-18T08:54:37;22.88;;;13.52;;
61960;SDS011;47923;42.506;24.192;2022-12-18T08:57:02;26.48;;;16.85;;
61960;SDS011;47923;42.506;24.192;2022-12-18T08:59:28;22.38;;;15.77;;
61960;SDS011;47923;42.506;24.192;2022-12-18T09:01:53;30.83;;;18.23;;
61960;SDS011;47923;42.506;24.192;2022-12-18T09:04:20;23.95;;;15.77;;
61960;SDS011;47923;42.506;24.192;2022-12-18T09:06:45;21.58;;;14.43;;
61960;SDS011;47923;42.506;24.192;2022-12-18T09:09:11;22.80;;;15.35;;
61960;SDS011;47923;42.506;24.192;2022-12-18T09:11:37;30.02;;;16.15;;
61960;SDS011;47923;42.506;24.192;2022-12-18T09:14:02;27.48;;;17.23;;
61960;SDS011;47923;42.506;24.192;2022-12-18T09:16:28;28.60;;;17.17;;
61960;SDS011;47923;42.506;24.192;2022-12-18T09:18:54;23.02;;;15.30;;
61960;SDS011;47923;42.506;24.192;2022-12-18T09:21:24;23.55;;;16.20;;
61960;SDS011;47923;42.506;24.192;2022-12-18T09:23:52;25.80;;;14.90;;
61960;SDS011;47923;42.506;24.192;2022-12-18T09:26:19;24.85;;;15.82;;
61960;SDS011;47923;42.506;24.192;2022-12-18T09:28:45;26.65;;;16.58;;
61960;SDS011;47923;42.506;24.192;2022-12-18T09:31:11;26.40;;;15.77;;
61960;SDS011;47923;42.506;24.192;2022-12-18T09:33:38;25.08;;;15.48;;
61960;SDS011;47923;42.506;24.192;2022-12-18T09:36:04;24.88;;;15.40;;
61960;SDS011;47923;42.506;24.192;2022-12-18T09:38:31;29.67;;;16.55;;
61960;SDS011;47923;42.506;24.192;2022-12-18T09:41:41;28.27;;;15.25;;
61960;SDS011;47923;42.506;24.192;2022-12-18T09:43:47;25.35;;;16.05;;
61960;SDS011;47923;42.506;24.192;2022-12-18T09:46:17;27.48;;;16.40;;
61960;SDS011;47923;42.506;24.192;2022-12-18T09:48:50;23.83;;;15.23;;
61960;SDS011;47923;42.506;24.192;2022-12-18T09:51:18;35.10;;;16.50;;
61960;SDS011;47923;42.506;24.192;2022-12-18T09:53:50;26.40;;;18.05;;
61960;SDS011;47923;42.506;24.192;2022-12-18T09:56:20;23.70;;;15.07;;
61960;SDS011;47923;42.506;24.192;2022-12-18T09:58:57;23.60;;;14.75;;
61960;SDS011;47923;42.506;24.192;2022-12-18T10:01:24;22.58;;;14.48;;
61960;SDS011;47923;42.506;24.192;2022-12-18T10:03:52;24.88;;;14.93;;
61960;SDS011;47923;42.506;24.192;2022-12-18T10:09:28;42.42;;;16.48;;
61960;SDS011;47923;42.506;24.192;2022-12-18T10:14:41;23.45;;;14.10;;
61960;SDS011;47923;42.506;24.192;2022-12-18T10:20:03;26.75;;;16.05;;
61960;SDS011;47923;42.506;24.192;2022-12-18T10:22:39;26.20;;;15.20;;
61960;SDS011;47923;42.506;24.192;2022-12-18T10:28:14;24.17;;;13.82;;
61960;SDS011;47923;42.506;24.192;2022-12-18T10:30:41;24.63;;;14.10;;
61960;SDS011;47923;42.506;24.192;2022-12-18T10:33:18;26.88;;;15.75;;
61960;SDS011;47923;42.506;24.192;2022-12-18T10:35:45;29.20;;;15.57;;
61960;SDS011;47923;42.506;24.192;2022-12-18T10:43:22;29.58;;;16.40;;
61960;SDS011;47923;42.506;24.192;2022-12-18T10:46:34;25.98;;;17.45;;
61960;SDS011;47923;42.506;24.192;2022-12-18T10:51:29;25.92;;;17.27;;
61960;SDS011;47923;42.506;24.192;2022-12-18T10:56:31;28.85;;;17.98;;
61960;SDS011;47923;42.506;24.192;2022-12-18T10:59:03;36.47;;;19.45;;
61960;SDS011;47923;42.506;24.192;2022-12-18T11:01:44;37.15;;;22.55;;
61960;SDS011;47923;42.506;24.192;2022-12-18T11:04:15;30.63;;;18.48;;
61960;SDS011;47923;42.506;24.192;2022-12-18T11:09:41;31.30;;;19.17;;
61960;SDS011;47923;42.506;24.192;2022-12-18T11:12:16;29.15;;;19.25;;
61960;SDS011;47923;42.506;24.192;2022-12-18T11:14:51;31.38;;;18.48;;
61960;SDS011;47923;42.506;24.192;2022-12-18T11:19:45;30.00;;;18.80;;
61960;SDS011;47923;42.506;24.192;2022-12-18T11:22:23;26.73;;;17.48;;
61960;SDS011;47923;42.506;24.192;2022-12-18T11:27:37;32.60;;;20.98;;
61960;SDS011;47923;42.506;24.192;2022-12-18T11:32:46;30.08;;;16.70;;
61960;SDS011;47923;42.506;24.192;2022-12-18T11:35:18;24.88;;;16.13;;
61960;SDS011;47923;42.506;24.192;2022-12-18T11:37:49;35.13;;;23.98;;
61960;SDS011;47923;42.506;24.192;2022-12-18T11:40:30;26.30;;;16.73;;
61960;SDS011;47923;42.506;24.192;2022-12-18T11:43:09;29.10;;;18.45;;
61960;SDS011;47923;42.506;24.192;2022-12-18T11:45:45;27.17;;;16.90;;
61960;SDS011;47923;42.506;24.192;2022-12-18T11:48:25;28.35;;;17.85;;
61960;SDS011;47923;42.506;24.192;2022-12-18T11:50:57;28.67;;;17.38;;
61960;SDS011;47923;42.506;24.192;2022-12-18T11:53:25;27.33;;;17.52;;
61960;SDS011;47923;42.506;24.192;2022-12-18T11:55:57;24.83;;;15.55;;
61960;SDS011;47923;42.506;24.192;2022-12-18T11:58:45;28.85;;;17.73;;
61960;SDS011;47923;42.506;24.192;2022-12-18T12:09:38;30.45;;;19.27;;
61960;SDS011;47923;42.506;24.192;2022-12-18T12:17:46;25.52;;;16.38;;
61960;SDS011;47923;42.506;24.192;2022-12-18T12:20:22;25.70;;;16.52;;
61960;SDS011;47923;42.506;24.192;2022-12-18T12:24:13;24.92;;;16.00;;
61960;SDS011;47923;42.506;24.192;2022-12-18T12:39:47;28.83;;;17.25;;
61960;SDS011;47923;42.506;24.192;2022-12-18T12:42:35;27.30;;;17.80;;
61960;SDS011;47923;42.506;24.192;2022-12-18T12:45:28;30.90;;;18.83;;
61960;SDS011;47923;42.506;24.192;2022-12-18T12:50:56;25.98;;;17.67;;
61960;SDS011;47923;42.506;24.192;2022-12-18T12:53:29;31.60;;;20.77;;
61960;SDS011;47923;42.506;24.192;2022-12-18T12:55:58;34.97;;;22.48;;
61960;SDS011;47923;42.506;24.192;2022-12-18T12:58:38;29.75;;;18.85;;
61960;SDS011;47923;42.506;24.192;2022-12-18T13:01:39;24.98;;;16.67;;
61960;SDS011;47923;42.506;24.192;2022-12-18T13:04:21;24.88;;;16.65;;
61960;SDS011;47923;42.506;24.192;2022-12-18T13:06:55;24.73;;;15.02;;
61960;SDS011;47923;42.506;24.192;2022-12-18T13:09:32;28.15;;;17.10;;
61960;SDS011;47923;42.506;24.192;2022-12-18T13:12:04;23.17;;;14.48;;
61960;SDS011;47923;42.506;24.192;2022-12-18T13:14:55;28.38;;;16.40;;
61960;SDS011;47923;42.506;24.192;2022-12-18T13:17:46;27.08;;;16.33;;
61960;SDS011;47923;42.506;24.192;2022-12-18T13:20:12;25.83;;;16.08;;
61960;SDS011;47923;42.506;24.192;2022-12-18T13:22:46;24.63;;;15.23;;
61960;SDS011;47923;42.506;24.192;2022-12-18T13:27:56;25.00;;;15.55;;
61960;SDS011;47923;42.506;24.192;2022-12-18T13:43:21;25.77;;;15.73;;
61960;SDS011;47923;42.506;24.192;2022-12-18T13:48:55;30.98;;;18.05;;
61960;SDS011;47923;42.506;24.192;2022-12-18T13:51:21;28.50;;;18.35;;
61960;SDS011;47923;42.506;24.192;2022-12-18T13:53:49;30.35;;;20.08;;
61960;SDS011;47923;42.506;24.192;2022-12-18T13:56:50;29.75;;;19.00;;
61960;SDS011;47923;42.506;24.192;2022-12-18T13:59:18;43.97;;;26.67;;
61960;SDS011;47923;42.506;24.192;2022-12-18T14:01:48;47.90;;;32.33;;
61960;SDS011;47923;42.506;24.192;2022-12-18T14:04:27;51.40;;;32.80;;
61960;SDS011;47923;42.506;24.192;2022-12-18T14:06:58;50.05;;;33.50;;
61960;SDS011;47923;42.506;24.192;2022-12-18T14:09:31;50.47;;;31.42;;
61960;SDS011;47923;42.506;24.192;2022-12-18T14:14:49;40.88;;;26.92;;
61960;SDS011;47923;42.506;24.192;2022-12-18T14:17:17;45.97;;;28.52;;
61960;SDS011;47923;42.506;24.192;2022-12-18T14:19:47;38.60;;;25.20;;
61960;SDS011;47923;42.506;24.192;2022-12-18T14:22:24;43.25;;;28.33;;
61960;SDS011;47923;42.506;24.192;2022-12-18T14:25:06;58.03;;;37.55;;
61960;SDS011;47923;42.506;24.192;2022-12-18T14:27:47;60.65;;;39.35;;
61960;SDS011;47923;42.506;24.192;2022-12-18T14:30:23;75.10;;;50.72;;
61960;SDS011;47923;42.506;24.192;2022-12-18T14:36:03;75.88;;;47.28;;
61960;SDS011;47923;42.506;24.192;2022-12-18T14:40:57;48.85;;;32.25;;
61960;SDS011;47923;42.506;24.192;2022-12-18T14:43:23;50.05;;;32.20;;
61960;SDS011;47923;42.506;24.192;2022-12-18T14:45:49;41.08;;;28.25;;
61960;SDS011;47923;42.506;24.192;2022-12-18T14:51:06;49.97;;;33.03;;
61960;SDS011;47923;42.506;24.192;2022-12-18T14:53:45;49.40;;;34.05;;
61960;SDS011;47923;42.506;24.192;2022-12-18T14:56:22;48.28;;;32.83;;
61960;SDS011;47923;42.506;24.192;2022-12-18T15:03:54;50.08;;;34.47;;
61960;SDS011;47923;42.506;24.192;2022-12-18T15:06:30;53.30;;;35.85;;
61960;SDS011;47923;42.506;24.192;2022-12-18T15:08:57;73.13;;;56.83;;
61960;SDS011;47923;42.506;24.192;2022-12-18T15:11:34;66.97;;;46.30;;
61960;SDS011;47923;42.506;24.192;2022-12-18T15:16:54;46.80;;;32.70;;
61960;SDS011;47923;42.506;24.192;2022-12-18T15:19:21;42.63;;;29.63;;
61960;SDS011;47923;42.506;24.192;2022-12-18T15:21:52;49.97;;;34.95;;
61960;SDS011;47923;42.506;24.192;2022-12-18T15:24:18;54.50;;;36.92;;
61960;SDS011;47923;42.506;24.192;2022-12-18T15:26:49;53.78;;;38.78;;
61960;SDS011;47923;42.506;24.192;2022-12-18T15:29:18;44.97;;;31.75;;
61960;SDS011;47923;42.506;24.192;2022-12-18T15:31:45;42.03;;;28.88;;
61960;SDS011;47923;42.506;24.192;2022-12-18T15:34:23;41.25;;;25.92;;
61960;SDS011;47923;42.506;24.192;2022-12-18T15:36:50;41.92;;;28.13;;
61960;SDS011;47923;42.506;24.192;2022-12-18T15:39:16;41.80;;;27.13;;
61960;SDS011;47923;42.506;24.192;2022-12-18T15:41:41;37.55;;;24.65;;
61960;SDS011;47923;42.506;24.192;2022-12-18T15:44:27;37.40;;;24.45;;
61960;SDS011;47923;42.506;24.192;2022-12-18T15:46:52;37.35;;;21.75;;
61960;SDS011;47923;42.506;24.192;2022-12-18T15:49:18;27.58;;;18.40;;
61960;SDS011;47923;42.506;24.192;2022-12-18T15:51:43;39.30;;;24.73;;
61960;SDS011;47923;42.506;24.192;2022-12-18T15:54:11;33.65;;;23.15;;
61960;SDS011;47923;42.506;24.192;2022-12-18T15:56:41;43.05;;;27.25;;
61960;SDS011;47923;42.506;24.192;2022-12-18T15:59:25;52.65;;;33.53;;
61960;SDS011;47923;42.506;24.192;2022-12-18T16:01:51;50.70;;;31.73;;
61960;SDS011;47923;42.506;24.192;2022-12-18T16:04:20;55.67;;;35.15;;
61960;SDS011;47923;42.506;24.192;2022-12-18T16:06:47;48.70;;;32.67;;
61960;SDS011;47923;42.506;24.192;2022-12-18T16:09:13;59.22;;;39.85;;
61960;SDS011;47923;42.506;24.192;2022-12-18T16:11:39;55.15;;;34.47;;
61960;SDS011;47923;42.506;24.192;2022-12-18T16:14:19;63.63;;;44.08;;
61960;SDS011;47923;42.506;24.192;2022-12-18T16:16:45;75.03;;;53.13;;
61960;SDS011;47923;42.506;24.192;2022-12-18T16:19:11;61.95;;;42.03;;
61960;SDS011;47923;42.506;24.192;2022-12-18T16:21:37;62.97;;;44.50;;
61960;SDS011;47923;42.506;24.192;2022-12-18T16:24:02;72.20;;;40.60;;
61960;SDS011;47923;42.506;24.192;2022-12-18T16:26:28;54.67;;;31.88;;
61960;SDS011;47923;42.506;24.192;2022-12-18T16:28:53;65.68;;;37.78;;
61960;SDS011;47923;42.506;24.192;2022-12-18T16:31:19;63.00;;;40.17;;
61960;SDS011;47923;42.506;24.192;2022-12-18T16:33:45;65.05;;;40.30;;
61960;SDS011;47923;42.506;24.192;2022-12-18T16:36:11;64.13;;;38.30;;